createdAt,value
2023-05-24T00:00:29.549Z,42.54
2023-05-24T00:01:29.511Z,42.44
2023-05-24T00:02:29.638Z,42.39
2023-05-24T00:03:29.602Z,42.37
2023-05-24T00:04:29.554Z,42.35
2023-05-24T00:05:29.543Z,42.35
2023-05-24T00:06:29.517Z,42.31
2023-05-24T00:07:29.533Z,42.30
2023-05-24T00:08:29.504Z,42.27
2023-05-24T00:09:29.534Z,42.30
2023-05-24T00:10:29.529Z,42.24
2023-05-24T00:11:29.531Z,42.24
2023-05-24T00:12:29.538Z,42.26
2023-05-24T00:13:29.534Z,42.26
2023-05-24T00:14:29.535Z,42.22
2023-05-24T00:15:29.521Z,42.23
2023-05-24T00:16:29.565Z,42.22
2023-05-24T00:17:29.555Z,42.22
2023-05-24T00:18:29.515Z,42.24
2023-05-24T00:19:29.544Z,42.22
2023-05-24T00:20:29.576Z,42.23
2023-05-24T00:21:29.564Z,42.22
2023-05-24T00:22:29.554Z,42.22
2023-05-24T00:23:29.558Z,42.22
2023-05-24T00:24:29.576Z,42.21
2023-05-24T00:25:29.597Z,42.24
2023-05-24T00:26:29.620Z,42.22
2023-05-24T00:27:29.621Z,42.22
2023-05-24T00:28:29.640Z,42.20
2023-05-24T00:29:31.484Z,42.22
2023-05-24T00:30:29.648Z,42.22
2023-05-24T00:31:29.645Z,42.22
2023-05-24T00:32:29.640Z,42.21
2023-05-24T00:33:29.630Z,42.21
2023-05-24T00:34:29.623Z,42.21
2023-05-24T00:35:29.613Z,42.19
2023-05-24T00:36:29.609Z,42.18
2023-05-24T00:37:29.632Z,42.21
2023-05-24T00:38:29.585Z,42.21
2023-05-24T00:39:29.596Z,42.20
2023-05-24T00:40:29.615Z,42.22
2023-05-24T00:41:29.575Z,42.21
2023-05-24T00:42:29.570Z,42.19
2023-05-24T00:43:29.554Z,42.20
2023-05-24T00:44:29.569Z,42.17
2023-05-24T00:45:30.843Z,42.21
2023-05-24T00:46:29.775Z,42.20
2023-05-24T00:47:29.564Z,42.21
2023-05-24T00:48:29.551Z,42.20
2023-05-24T00:49:29.536Z,42.20
2023-05-24T00:50:29.537Z,42.21
2023-05-24T00:51:29.543Z,42.19
2023-05-24T00:52:29.542Z,42.19
2023-05-24T00:53:29.535Z,42.19
2023-05-24T00:54:29.537Z,42.17
2023-05-24T00:55:29.539Z,42.17
2023-05-24T00:56:29.541Z,42.18
2023-05-24T00:57:29.542Z,42.16
2023-05-24T00:58:29.548Z,42.17
2023-05-24T00:59:29.547Z,42.16
2023-05-24T01:00:29.595Z,42.18
2023-05-24T01:01:29.643Z,42.17
2023-05-24T01:02:29.652Z,42.17
2023-05-24T01:03:29.761Z,42.16
2023-05-24T01:04:29.593Z,42.17
2023-05-24T01:05:29.590Z,42.18
2023-05-24T01:06:29.607Z,42.16
2023-05-24T01:07:29.590Z,42.17
2023-05-24T01:08:29.590Z,42.17
2023-05-24T01:09:29.598Z,42.17
2023-05-24T01:10:29.604Z,42.16
2023-05-24T01:11:29.589Z,42.15
2023-05-24T01:12:29.596Z,42.17
2023-05-24T01:13:29.637Z,42.16
2023-05-24T01:14:29.598Z,42.16
2023-05-24T01:15:29.600Z,42.17
2023-05-24T01:16:29.612Z,42.15
2023-05-24T01:17:29.668Z,42.17
2023-05-24T01:18:29.592Z,42.17
2023-05-24T01:19:29.588Z,42.17
2023-05-24T01:20:29.672Z,42.16
2023-05-24T01:21:29.641Z,42.19
2023-05-24T01:22:29.631Z,42.16
2023-05-24T01:23:29.604Z,42.14
2023-05-24T01:24:29.593Z,42.19
2023-05-24T01:25:29.592Z,42.16
2023-05-24T01:26:29.653Z,42.15
2023-05-24T01:27:29.611Z,42.15
2023-05-24T01:28:29.590Z,42.17
2023-05-24T01:29:29.589Z,42.15
2023-05-24T01:30:29.590Z,42.18
2023-05-24T01:31:29.638Z,42.14
2023-05-24T01:32:29.597Z,42.17
2023-05-24T01:33:29.617Z,42.16
2023-05-24T01:34:29.590Z,42.18
2023-05-24T01:35:29.592Z,42.16
2023-05-24T01:36:29.603Z,42.15
2023-05-24T01:37:29.587Z,42.15
2023-05-24T01:38:29.594Z,42.15
2023-05-24T01:39:29.590Z,42.16
2023-05-24T01:40:29.604Z,42.16
2023-05-24T01:41:29.590Z,42.13
2023-05-24T01:42:29.590Z,42.15
2023-05-24T01:43:29.590Z,42.14
2023-05-24T01:44:29.585Z,42.15
2023-05-24T01:45:29.601Z,42.14
2023-05-24T01:46:29.672Z,42.14
2023-05-24T01:47:29.622Z,42.16
2023-05-24T01:48:29.583Z,42.13
2023-05-24T01:49:29.622Z,42.14
2023-05-24T01:50:29.599Z,42.13
2023-05-24T01:51:29.607Z,42.16
2023-05-24T01:52:29.634Z,42.13
2023-05-24T01:53:29.644Z,42.16
2023-05-24T01:54:29.677Z,42.18
2023-05-24T01:55:29.732Z,42.13
2023-05-24T01:56:29.726Z,42.14
2023-05-24T01:57:29.751Z,42.15
2023-05-24T01:58:29.781Z,42.14
2023-05-24T01:59:29.796Z,42.17
2023-05-24T02:00:29.830Z,42.15
2023-05-24T02:01:29.894Z,42.16
2023-05-24T02:02:29.914Z,42.14
2023-05-24T02:03:29.933Z,42.14
2023-05-24T02:04:29.925Z,42.16
2023-05-24T02:05:29.960Z,42.16
2023-05-24T02:06:29.958Z,42.15
2023-05-24T02:07:30.590Z,42.13
2023-05-24T02:08:29.996Z,42.14
2023-05-24T02:09:30.028Z,42.16
2023-05-24T02:10:30.043Z,42.16
2023-05-24T02:11:30.064Z,42.15
2023-05-24T02:12:30.081Z,42.15
2023-05-24T02:13:30.110Z,42.15
2023-05-24T02:14:30.130Z,42.16
2023-05-24T02:15:30.161Z,42.12
2023-05-24T02:16:30.255Z,42.15
2023-05-24T02:17:30.262Z,42.14
2023-05-24T02:18:30.225Z,42.14
2023-05-24T02:19:30.252Z,42.12
2023-05-24T02:20:30.363Z,42.14
2023-05-24T02:21:30.338Z,42.11
2023-05-24T02:22:30.341Z,42.16
2023-05-24T02:23:30.371Z,42.14
2023-05-24T02:24:30.397Z,42.13
2023-05-24T02:25:30.413Z,42.13
2023-05-24T02:26:30.444Z,42.15
2023-05-24T02:27:30.477Z,42.14
2023-05-24T02:28:30.506Z,42.13
2023-05-24T02:29:30.541Z,42.14
2023-05-24T02:30:30.570Z,42.15
2023-05-24T02:31:30.830Z,42.15
2023-05-24T02:32:30.623Z,42.12
2023-05-24T02:33:30.652Z,42.11
2023-05-24T02:34:30.655Z,42.14
2023-05-24T02:35:30.689Z,42.12
2023-05-24T02:36:30.726Z,42.13
2023-05-24T02:37:30.767Z,42.14
2023-05-24T02:38:30.767Z,42.13
2023-05-24T02:39:30.799Z,42.11
2023-05-24T02:40:30.832Z,42.13
2023-05-24T02:41:30.882Z,42.12
2023-05-24T02:42:30.908Z,42.11
2023-05-24T02:43:30.921Z,42.12
2023-05-24T02:44:30.979Z,42.12
2023-05-24T02:45:30.991Z,42.13
2023-05-24T02:46:31.064Z,42.11
2023-05-24T02:47:31.076Z,42.12
2023-05-24T02:48:31.079Z,42.12
2023-05-24T02:49:31.115Z,42.11
2023-05-24T02:50:31.128Z,42.10
2023-05-24T02:51:31.169Z,42.12
2023-05-24T02:52:31.200Z,42.09
2023-05-24T02:53:31.258Z,42.10
2023-05-24T02:54:31.272Z,42.11
2023-05-24T02:55:31.309Z,42.11
2023-05-24T02:56:31.325Z,42.13
2023-05-24T02:57:31.355Z,42.08
2023-05-24T02:58:31.412Z,42.10
2023-05-24T02:59:31.430Z,42.11
2023-05-24T03:00:31.498Z,42.09
2023-05-24T03:01:31.532Z,42.10
2023-05-24T03:02:31.566Z,42.11
2023-05-24T03:03:31.633Z,42.10
2023-05-24T03:04:31.588Z,42.11
2023-05-24T03:05:31.637Z,42.10
2023-05-24T03:06:31.692Z,42.11
2023-05-24T03:07:31.708Z,42.11
2023-05-24T03:08:31.729Z,42.11
2023-05-24T03:09:31.778Z,42.09
2023-05-24T03:10:31.777Z,42.09
2023-05-24T03:11:31.815Z,42.09
2023-05-24T03:12:32.344Z,42.09
2023-05-24T03:13:31.876Z,42.09
2023-05-24T03:14:31.901Z,42.08
2023-05-24T03:15:31.939Z,42.10
2023-05-24T03:16:32.117Z,42.09
2023-05-24T03:17:32.066Z,42.10
2023-05-24T03:18:32.041Z,42.11
2023-05-24T03:19:32.106Z,42.10
2023-05-24T03:20:32.156Z,42.10
2023-05-24T03:21:32.162Z,42.12
2023-05-24T03:22:32.192Z,42.08
2023-05-24T03:23:32.227Z,42.08
2023-05-24T03:24:32.895Z,42.08
2023-05-24T03:25:32.317Z,42.10
2023-05-24T03:26:32.331Z,42.08
2023-05-24T03:27:32.384Z,42.10
2023-05-24T03:28:32.405Z,42.09
2023-05-24T03:29:32.457Z,42.10
2023-05-24T03:30:32.476Z,42.11
2023-05-24T03:31:32.592Z,42.07
2023-05-24T03:32:32.577Z,42.12
2023-05-24T03:33:32.599Z,42.07
2023-05-24T03:34:32.638Z,42.09
2023-05-24T03:35:32.654Z,42.09
2023-05-24T03:36:32.699Z,42.08
2023-05-24T03:37:32.726Z,42.08
2023-05-24T03:38:32.760Z,42.08
2023-05-24T03:39:32.811Z,42.06
2023-05-24T03:40:32.837Z,42.08
2023-05-24T03:41:32.894Z,42.07
2023-05-24T03:42:32.915Z,42.09
2023-05-24T03:43:32.928Z,42.07
2023-05-24T03:44:32.958Z,42.07
2023-05-24T03:45:38.981Z,42.07
2023-05-24T03:46:32.997Z,42.09
2023-05-24T03:47:33.004Z,42.08
2023-05-24T03:48:32.978Z,42.06
2023-05-24T03:49:33.052Z,42.07
2023-05-24T03:50:32.970Z,42.07
2023-05-24T03:51:32.958Z,42.07
2023-05-24T03:52:32.969Z,42.06
2023-05-24T03:53:32.944Z,42.06
2023-05-24T03:54:32.945Z,42.04
2023-05-24T03:55:32.934Z,42.04
2023-05-24T03:56:32.958Z,42.05
2023-05-24T03:57:32.935Z,42.05
2023-05-24T03:58:32.917Z,42.02
2023-05-24T03:59:32.899Z,42.06
2023-05-24T04:00:32.946Z,42.02
2023-05-24T04:01:34.457Z,42.04
2023-05-24T04:02:32.978Z,42.02
2023-05-24T04:03:32.937Z,42.03
2023-05-24T04:04:32.866Z,42.02
2023-05-24T04:05:32.858Z,42.05
2023-05-24T04:06:32.853Z,42.02
2023-05-24T04:07:32.847Z,42.03
2023-05-24T04:08:32.836Z,42.02
2023-05-24T04:09:32.852Z,42.04
2023-05-24T04:10:32.834Z,42.03
2023-05-24T04:11:32.830Z,42.02
2023-05-24T04:12:32.813Z,42.01
2023-05-24T04:13:32.833Z,42.04
2023-05-24T04:14:32.807Z,42.02
2023-05-24T04:15:32.795Z,42.02
2023-05-24T04:16:32.800Z,42.03
2023-05-24T04:17:32.860Z,42.01
2023-05-24T04:18:32.839Z,42.05
2023-05-24T04:19:32.768Z,42.02
2023-05-24T04:20:32.855Z,42.02
2023-05-24T04:21:32.752Z,42.01
2023-05-24T04:22:32.753Z,42.05
2023-05-24T04:23:32.745Z,42.02
2023-05-24T04:24:32.744Z,42.00
2023-05-24T04:25:32.730Z,42.05
2023-05-24T04:26:32.718Z,42.05
2023-05-24T04:27:32.717Z,42.04
2023-05-24T04:28:32.710Z,41.99
2023-05-24T04:29:32.736Z,42.01
2023-05-24T04:30:32.704Z,42.01
2023-05-24T04:31:32.791Z,42.02
2023-05-24T04:32:32.827Z,42.01
2023-05-24T04:33:32.762Z,42.03
2023-05-24T04:34:32.805Z,42.04
2023-05-24T04:35:32.831Z,42.03
2023-05-24T04:36:32.884Z,42.03
2023-05-24T04:37:32.915Z,41.99
2023-05-24T04:38:32.936Z,42.03
2023-05-24T04:39:33.439Z,42.03
2023-05-24T04:40:33.017Z,42.01
2023-05-24T04:41:33.042Z,42.02
2023-05-24T04:42:33.079Z,42.01
2023-05-24T04:43:33.108Z,42.02
2023-05-24T04:44:33.154Z,42.01
2023-05-24T04:45:33.208Z,41.99
2023-05-24T04:46:33.240Z,42.02
2023-05-24T04:47:33.275Z,42.01
2023-05-24T04:48:33.295Z,42.02
2023-05-24T04:49:33.350Z,42.02
2023-05-24T04:50:33.372Z,42.02
2023-05-24T04:51:33.416Z,42.00
2023-05-24T04:52:33.454Z,42.01
2023-05-24T04:53:33.487Z,42.00
2023-05-24T04:54:33.548Z,42.01
2023-05-24T04:55:33.580Z,42.00
2023-05-24T04:56:33.616Z,42.01
2023-05-24T04:57:33.651Z,41.99
2023-05-24T04:58:33.699Z,41.99
2023-05-24T04:59:33.738Z,41.98
2023-05-24T05:00:33.766Z,41.98
2023-05-24T05:01:33.882Z,41.99
2023-05-24T05:02:33.874Z,41.99
2023-05-24T05:03:34.004Z,42.01
2023-05-24T05:04:33.924Z,42.00
2023-05-24T05:05:33.961Z,41.98
2023-05-24T05:06:34.020Z,41.98
2023-05-24T05:07:34.061Z,41.97
2023-05-24T05:08:34.068Z,41.98
2023-05-24T05:09:34.106Z,41.97
2023-05-24T05:10:34.156Z,41.99
2023-05-24T05:11:34.186Z,41.98
2023-05-24T05:12:34.228Z,41.97
2023-05-24T05:13:34.270Z,41.98
2023-05-24T05:14:34.714Z,41.98
2023-05-24T05:15:34.716Z,41.96
2023-05-24T05:16:34.749Z,41.95
2023-05-24T05:17:34.888Z,41.97
2023-05-24T05:18:34.720Z,41.97
2023-05-24T05:19:34.705Z,42.07
2023-05-24T05:20:35.259Z,42.10
2023-05-24T05:21:34.699Z,42.11
2023-05-24T05:22:34.707Z,42.14
2023-05-24T05:23:34.729Z,42.12
2023-05-24T05:24:35.181Z,42.15
2023-05-24T05:25:34.738Z,42.25
2023-05-24T05:26:34.801Z,42.25
2023-05-24T05:27:35.010Z,42.22
2023-05-24T05:28:35.040Z,42.27
2023-05-24T05:29:36.058Z,42.34
2023-05-24T05:30:34.998Z,42.31
2023-05-24T05:31:35.198Z,42.41
2023-05-24T05:32:35.263Z,42.41
2023-05-24T05:33:35.162Z,42.58
2023-05-24T05:34:35.194Z,42.65
2023-05-24T05:35:35.116Z,42.67
2023-05-24T05:36:35.171Z,42.61
2023-05-24T05:37:35.713Z,42.59
2023-05-24T05:38:35.172Z,42.54
2023-05-24T05:39:35.225Z,42.61
2023-05-24T05:40:35.262Z,42.62
2023-05-24T05:41:35.747Z,42.70
2023-05-24T05:42:35.303Z,42.70
2023-05-24T05:43:35.310Z,42.78
2023-05-24T05:44:35.736Z,42.76
2023-05-24T05:45:35.729Z,42.68
2023-05-24T05:46:36.203Z,42.75
2023-05-24T05:47:35.750Z,42.85
2023-05-24T05:48:35.740Z,42.93
2023-05-24T05:49:35.782Z,42.95
2023-05-24T05:50:35.669Z,43.00
2023-05-24T05:51:35.686Z,43.14
2023-05-24T05:52:35.924Z,43.04
2023-05-24T05:53:35.497Z,43.01
2023-05-24T05:54:38.905Z,43.07
2023-05-24T05:56:51.386Z,43.35
2023-05-24T05:57:38.971Z,43.63
2023-05-24T05:58:35.736Z,43.24
2023-05-24T05:59:51.361Z,43.15
2023-05-24T06:00:35.739Z,43.06
2023-05-24T06:01:39.385Z,43.11
2023-05-24T06:03:39.259Z,43.21
2023-05-24T06:04:35.746Z,43.26
2023-05-24T06:06:51.380Z,43.30
2023-05-24T06:07:43.130Z,43.32
2023-05-24T06:08:35.737Z,43.30
2023-05-24T06:09:35.737Z,43.27
2023-05-24T06:10:36.278Z,43.30
2023-05-24T06:11:36.184Z,43.30
2023-05-24T06:12:36.185Z,43.26
2023-05-24T06:13:35.735Z,43.31
2023-05-24T06:14:35.735Z,43.24
2023-05-24T06:15:35.756Z,43.25
2023-05-24T06:16:35.866Z,43.23
2023-05-24T06:17:35.775Z,43.24
2023-05-24T06:18:35.757Z,43.22
2023-05-24T06:19:43.164Z,43.21
2023-05-24T06:20:35.744Z,43.24
2023-05-24T06:21:35.694Z,43.17
2023-05-24T06:22:35.778Z,43.18
2023-05-24T06:23:35.311Z,43.18
2023-05-24T06:24:35.325Z,43.18
2023-05-24T06:25:35.299Z,43.13
2023-05-24T06:26:35.305Z,43.14
2023-05-24T06:27:35.288Z,43.11
2023-05-24T06:28:35.289Z,43.11
2023-05-24T06:29:35.757Z,43.09
2023-05-24T06:30:35.561Z,43.07
2023-05-24T06:31:35.288Z,43.08
2023-05-24T06:32:35.287Z,43.09
2023-05-24T06:33:37.618Z,43.06
2023-05-24T06:34:35.752Z,43.05
2023-05-24T06:35:35.240Z,43.04
2023-05-24T06:36:35.232Z,43.03
2023-05-24T06:37:35.225Z,43.02
2023-05-24T06:38:35.250Z,43.01
2023-05-24T06:39:35.765Z,43.01
2023-05-24T06:40:35.200Z,42.98
2023-05-24T06:41:35.759Z,43.01
2023-05-24T06:42:35.192Z,42.98
2023-05-24T06:43:35.187Z,42.99
2023-05-24T06:44:35.170Z,42.97
2023-05-24T06:45:35.173Z,42.95
2023-05-24T06:46:35.222Z,42.95
2023-05-24T06:47:35.241Z,42.94
2023-05-24T06:48:35.239Z,42.94
2023-05-24T06:49:35.150Z,42.98
2023-05-24T06:50:35.151Z,42.93
2023-05-24T06:51:35.208Z,42.91
2023-05-24T06:52:35.137Z,42.93
2023-05-24T06:55:35.147Z,42.94
2023-05-24T06:56:50.817Z,42.93
2023-05-24T06:57:36.220Z,42.97
2023-05-24T06:58:38.298Z,42.94
2023-05-24T06:59:35.101Z,42.94
2023-05-24T07:01:07.084Z,42.93
2023-05-24T07:01:35.082Z,42.89
2023-05-24T07:02:35.200Z,42.87
2023-05-24T07:03:35.056Z,42.83
2023-05-24T07:04:35.102Z,42.91
2023-05-24T07:05:35.051Z,42.91
2023-05-24T07:06:35.206Z,42.93
2023-05-24T07:07:35.205Z,42.87
2023-05-24T07:08:35.030Z,42.82
2023-05-24T07:09:35.017Z,42.78
2023-05-24T07:10:35.008Z,42.77
2023-05-24T07:11:35.332Z,42.77
2023-05-24T07:12:34.997Z,42.74
2023-05-24T07:13:35.220Z,42.77
2023-05-24T07:14:35.009Z,42.87
2023-05-24T07:15:35.026Z,42.86
2023-05-24T07:16:35.035Z,42.83
2023-05-24T07:17:35.233Z,42.83
2023-05-24T07:18:34.980Z,42.75
2023-05-24T07:19:50.648Z,42.77
2023-05-24T07:20:35.005Z,42.77
2023-05-24T07:21:35.202Z,42.86
2023-05-24T07:22:35.141Z,42.86
2023-05-24T07:23:35.775Z,42.82
2023-05-24T07:24:34.940Z,42.82
2023-05-24T07:25:34.937Z,42.82
2023-05-24T07:26:34.929Z,42.79
2023-05-24T07:27:35.239Z,42.79
2023-05-24T07:28:34.913Z,42.66
2023-05-24T07:29:34.918Z,42.69
2023-05-24T07:30:34.915Z,42.64
2023-05-24T07:31:35.220Z,42.59
2023-05-24T07:32:35.100Z,42.58
2023-05-24T07:33:34.908Z,42.78
2023-05-24T07:34:38.409Z,42.75
2023-05-24T07:35:42.313Z,42.81
2023-05-24T07:36:35.187Z,42.93
2023-05-24T07:37:43.177Z,43.01
2023-05-24T07:38:42.531Z,43.03
2023-05-24T07:39:34.973Z,43.22
2023-05-24T07:41:42.415Z,43.43
2023-05-24T07:42:36.380Z,43.47
2023-05-24T07:43:35.126Z,43.57
2023-05-24T07:44:42.823Z,43.74
2023-05-24T07:45:38.104Z,43.80
2023-05-24T07:46:38.171Z,43.96
2023-05-24T07:47:38.480Z,43.15
2023-05-24T07:48:34.892Z,43.13
2023-05-24T07:49:35.285Z,43.31
2023-05-24T07:50:34.887Z,43.43
2023-05-24T07:51:34.992Z,43.34
2023-05-24T07:52:34.859Z,43.51
2023-05-24T07:53:35.852Z,43.54
2023-05-24T07:54:35.244Z,43.92
2023-05-24T07:55:38.072Z,44.03
2023-05-24T07:57:34.851Z,44.26
2023-05-24T07:58:34.828Z,44.37
2023-05-24T07:59:35.418Z,44.46
2023-05-24T08:00:34.821Z,44.62
2023-05-24T08:01:35.243Z,44.53
2023-05-24T08:02:34.947Z,44.59
2023-05-24T08:03:34.913Z,44.84
2023-05-24T08:04:37.976Z,44.91
2023-05-24T08:05:34.770Z,44.82
2023-05-24T08:06:34.890Z,45.00
2023-05-24T08:07:34.845Z,45.20
2023-05-24T08:08:34.778Z,45.26
2023-05-24T08:09:38.058Z,45.22
2023-05-24T08:10:34.873Z,45.37
2023-05-24T08:11:35.920Z,45.32
2023-05-24T08:12:34.714Z,45.44
2023-05-24T08:13:34.748Z,45.28
2023-05-24T08:14:34.967Z,45.36
2023-05-24T08:15:34.950Z,45.55
2023-05-24T08:16:34.748Z,45.61
2023-05-24T08:17:34.807Z,45.53
2023-05-24T08:18:34.813Z,45.59
2023-05-24T08:19:34.864Z,45.67
2023-05-24T08:20:34.990Z,45.81
2023-05-24T08:21:35.242Z,45.56
2023-05-24T08:22:35.035Z,45.56
2023-05-24T08:23:35.090Z,45.64
2023-05-24T08:24:35.131Z,45.65
2023-05-24T08:25:35.211Z,45.64
2023-05-24T08:26:35.240Z,45.75
2023-05-24T08:27:35.311Z,45.82
2023-05-24T08:28:36.106Z,45.84
2023-05-24T08:29:35.398Z,45.77
2023-05-24T08:30:35.438Z,45.68
2023-05-24T08:31:35.810Z,45.45
2023-05-24T08:32:35.565Z,45.75
2023-05-24T08:33:35.583Z,45.95
2023-05-24T08:34:35.634Z,45.72
2023-05-24T08:35:35.700Z,45.82
2023-05-24T08:36:35.734Z,45.94
2023-05-24T08:37:35.738Z,46.00
2023-05-24T08:38:39.432Z,46.41
2023-05-24T08:39:37.244Z,46.48
2023-05-24T08:40:36.234Z,46.10
2023-05-24T08:41:35.863Z,46.06
2023-05-24T08:42:36.083Z,46.22
2023-05-24T08:43:35.931Z,46.16
2023-05-24T08:44:35.930Z,45.72
2023-05-24T08:45:36.248Z,46.03
2023-05-24T08:46:36.041Z,46.05
2023-05-24T08:47:36.056Z,45.84
2023-05-24T08:48:36.133Z,45.48
2023-05-24T08:49:36.098Z,45.07
2023-05-24T08:50:36.136Z,44.86
2023-05-24T08:51:36.589Z,44.76
2023-05-24T08:52:51.791Z,44.73
2023-05-24T08:54:08.040Z,44.92
2023-05-24T08:54:36.165Z,45.11
2023-05-24T08:55:36.153Z,45.09
2023-05-24T08:56:36.153Z,45.38
2023-05-24T08:57:36.436Z,45.56
2023-05-24T08:58:36.141Z,45.20
2023-05-24T08:59:36.138Z,45.08
2023-05-24T09:00:36.253Z,45.09
2023-05-24T09:01:36.917Z,45.14
2023-05-24T09:02:37.188Z,45.38
2023-05-24T09:03:37.274Z,45.39
2023-05-24T09:04:36.225Z,45.47
2023-05-24T09:05:36.246Z,45.59
2023-05-24T09:06:36.271Z,45.47
2023-05-24T09:07:36.307Z,45.69
2023-05-24T09:08:36.325Z,45.78
2023-05-24T09:09:36.519Z,45.81
2023-05-24T09:10:49.353Z,45.84
2023-05-24T09:11:38.082Z,45.87
2023-05-24T09:12:39.717Z,45.94
2023-05-24T09:13:36.353Z,45.86
2023-05-24T09:14:36.359Z,45.82
2023-05-24T09:15:36.555Z,45.98
2023-05-24T09:16:36.426Z,46.05
2023-05-24T09:17:36.459Z,45.74
2023-05-24T09:18:36.326Z,45.84
2023-05-24T09:19:37.019Z,45.98
2023-05-24T09:20:36.384Z,46.05
2023-05-24T09:21:36.375Z,46.01
2023-05-24T09:22:39.572Z,46.16
2023-05-24T09:23:36.431Z,46.18
2023-05-24T09:24:36.767Z,46.04
2023-05-24T09:25:36.483Z,46.08
2023-05-24T09:26:37.267Z,46.12
2023-05-24T09:27:36.528Z,46.36
2023-05-24T09:28:36.537Z,45.92
2023-05-24T09:29:37.071Z,45.83
2023-05-24T09:30:36.608Z,45.96
2023-05-24T09:32:09.075Z,46.19
2023-05-24T09:32:36.904Z,45.67
2023-05-24T09:33:36.746Z,45.79
2023-05-24T09:34:36.874Z,46.00
2023-05-24T09:35:37.856Z,46.15
2023-05-24T09:36:37.751Z,46.16
2023-05-24T09:37:36.628Z,46.40
2023-05-24T09:38:36.922Z,46.29
2023-05-24T09:39:36.759Z,46.20
2023-05-24T09:40:36.560Z,46.09
2023-05-24T09:41:37.765Z,46.43
2023-05-24T09:42:36.869Z,46.20
2023-05-24T09:43:36.814Z,46.44
2023-05-24T09:44:37.874Z,46.42
2023-05-24T09:45:36.684Z,46.53
2023-05-24T09:46:36.798Z,46.31
2023-05-24T09:47:36.722Z,46.39
2023-05-24T09:48:36.757Z,46.14
2023-05-24T09:49:36.898Z,46.12
2023-05-24T09:50:36.794Z,45.99
2023-05-24T09:51:37.326Z,46.29
2023-05-24T09:52:36.879Z,46.56
2023-05-24T09:53:36.927Z,46.29
2023-05-24T09:54:37.276Z,46.53
2023-05-24T09:55:37.057Z,46.77
2023-05-24T09:56:37.264Z,46.64
2023-05-24T09:57:37.137Z,46.59
2023-05-24T09:58:37.217Z,46.52
2023-05-24T09:59:37.275Z,46.74
2023-05-24T10:00:37.319Z,46.75
2023-05-24T10:01:37.455Z,46.95
2023-05-24T10:02:51.410Z,46.94
2023-05-24T10:03:38.007Z,47.02
2023-05-24T10:04:37.468Z,47.12
2023-05-24T10:05:38.143Z,46.80
2023-05-24T10:06:37.840Z,46.77
2023-05-24T10:07:37.432Z,46.79
2023-05-24T10:08:37.771Z,46.48
2023-05-24T10:09:40.596Z,46.42
2023-05-24T10:10:37.399Z,46.50
2023-05-24T10:11:37.402Z,46.65
2023-05-24T10:12:37.772Z,46.76
2023-05-24T10:13:37.388Z,46.59
2023-05-24T10:14:37.359Z,46.62
2023-05-24T10:15:37.353Z,46.64
2023-05-24T10:16:37.390Z,46.75
2023-05-24T10:17:37.829Z,46.79
2023-05-24T10:18:37.338Z,46.71
2023-05-24T10:19:37.325Z,46.75
2023-05-24T10:20:37.361Z,46.66
2023-05-24T10:21:37.458Z,46.73
2023-05-24T10:22:37.916Z,46.87
2023-05-24T10:23:37.333Z,46.73
2023-05-24T10:24:37.286Z,46.77
2023-05-24T10:25:37.287Z,46.79
2023-05-24T10:26:37.805Z,46.95
2023-05-24T10:27:37.294Z,46.93
2023-05-24T10:28:37.355Z,46.93
2023-05-24T10:29:37.330Z,46.98
2023-05-24T10:30:37.293Z,47.00
2023-05-24T10:31:37.319Z,46.83
2023-05-24T10:32:37.338Z,46.89
2023-05-24T10:33:37.221Z,46.93
2023-05-24T10:34:37.305Z,46.99
2023-05-24T10:35:37.299Z,47.05
2023-05-24T10:36:37.267Z,46.83
2023-05-24T10:37:37.212Z,46.71
2023-05-24T10:38:37.284Z,46.70
2023-05-24T10:39:38.308Z,46.51
2023-05-24T10:40:37.261Z,46.45
2023-05-24T10:41:37.272Z,46.38
2023-05-24T10:42:37.342Z,46.61
2023-05-24T10:43:37.804Z,46.89
2023-05-24T10:44:37.390Z,46.88
2023-05-24T10:45:37.412Z,47.24
2023-05-24T10:46:37.475Z,47.29
2023-05-24T10:47:39.047Z,47.30
2023-05-24T10:48:37.454Z,47.30
2023-05-24T10:49:37.421Z,47.23
2023-05-24T10:50:37.459Z,47.14
2023-05-24T10:51:37.409Z,47.13
2023-05-24T10:52:37.426Z,47.06
2023-05-24T10:53:37.395Z,47.02
2023-05-24T10:54:37.407Z,46.95
2023-05-24T10:55:37.402Z,46.96
2023-05-24T10:56:37.371Z,46.89
2023-05-24T10:57:37.367Z,46.87
2023-05-24T10:58:37.360Z,46.96
2023-05-24T10:59:37.374Z,46.95
2023-05-24T11:00:37.414Z,46.92
2023-05-24T11:01:37.361Z,46.94
2023-05-24T11:02:37.884Z,46.88
2023-05-24T11:03:37.320Z,46.85
2023-05-24T11:04:37.331Z,46.86
2023-05-24T11:05:37.342Z,46.86
2023-05-24T11:06:37.301Z,46.81
2023-05-24T11:07:37.302Z,46.89
2023-05-24T11:08:37.288Z,46.96
2023-05-24T11:09:37.284Z,46.04
2023-05-24T11:10:37.272Z,45.89
2023-05-24T11:11:37.324Z,46.07
2023-05-24T11:12:37.293Z,46.22
2023-05-24T11:13:37.278Z,46.49
2023-05-24T11:14:37.297Z,46.55
2023-05-24T11:15:37.245Z,46.54
2023-05-24T11:16:37.848Z,46.34
2023-05-24T11:17:37.386Z,46.32
2023-05-24T11:18:37.369Z,46.27
2023-05-24T11:19:37.403Z,46.28
2023-05-24T11:20:37.482Z,46.31
2023-05-24T11:21:37.453Z,46.25
2023-05-24T11:22:37.473Z,46.28
2023-05-24T11:23:38.478Z,46.28
2023-05-24T11:24:37.514Z,45.96
2023-05-24T11:25:37.537Z,46.04
2023-05-24T11:26:37.552Z,45.87
2023-05-24T11:27:37.603Z,45.96
2023-05-24T11:28:37.764Z,45.87
2023-05-24T11:29:38.332Z,45.92
2023-05-24T11:30:37.625Z,45.96
2023-05-24T11:31:41.120Z,45.95
2023-05-24T11:32:37.694Z,45.90
2023-05-24T11:33:37.635Z,45.90
2023-05-24T11:34:37.806Z,46.01
2023-05-24T11:35:37.619Z,45.48
2023-05-24T11:36:37.812Z,45.30
2023-05-24T11:37:46.039Z,44.95
2023-05-24T11:38:37.652Z,45.32
2023-05-24T11:39:37.729Z,45.57
2023-05-24T11:40:37.591Z,45.75
2023-05-24T11:41:37.587Z,45.82
2023-05-24T11:42:37.610Z,44.89
2023-05-24T11:43:37.615Z,44.62
2023-05-24T11:44:37.569Z,44.25
2023-05-24T11:45:37.590Z,44.67
2023-05-24T11:46:37.550Z,45.41
2023-05-24T11:47:37.583Z,46.02
2023-05-24T11:48:49.827Z,46.55
2023-05-24T11:49:37.530Z,47.06
2023-05-24T11:50:48.693Z,47.31
2023-05-24T11:51:37.554Z,47.64
2023-05-24T11:52:37.504Z,47.67
2023-05-24T11:53:37.667Z,48.13
2023-05-24T11:54:37.509Z,48.22
2023-05-24T11:55:37.710Z,48.48
2023-05-24T11:56:37.477Z,48.97
2023-05-24T11:57:37.465Z,48.52
2023-05-24T11:58:37.467Z,49.26
2023-05-24T11:59:37.479Z,49.56
2023-05-24T12:00:37.457Z,48.98
2023-05-24T12:01:37.443Z,49.04
2023-05-24T12:02:37.526Z,49.95
2023-05-24T12:03:37.562Z,51.27
2023-05-24T12:04:37.959Z,51.81
2023-05-24T12:05:37.407Z,52.17
2023-05-24T12:06:38.025Z,52.15
2023-05-24T12:07:37.442Z,51.70
2023-05-24T12:08:37.400Z,50.88
2023-05-24T12:09:37.385Z,50.83
2023-05-24T12:10:37.415Z,50.61
2023-05-24T12:11:37.829Z,49.92
2023-05-24T12:12:45.753Z,49.98
2023-05-24T12:13:37.353Z,49.77
2023-05-24T12:14:37.353Z,49.83
2023-05-24T12:15:37.376Z,49.66
2023-05-24T12:16:37.350Z,49.59
2023-05-24T12:17:37.374Z,49.49
2023-05-24T12:18:38.627Z,49.39
2023-05-24T12:19:37.482Z,49.34
2023-05-24T12:20:37.405Z,49.25
2023-05-24T12:21:37.318Z,49.16
2023-05-24T12:22:37.295Z,49.19
2023-05-24T12:23:37.649Z,49.12
2023-05-24T12:24:37.301Z,49.08
2023-05-24T12:25:37.265Z,49.04
2023-05-24T12:26:37.269Z,49.06
2023-05-24T12:27:37.275Z,49.04
2023-05-24T12:28:37.278Z,49.04
2023-05-24T12:29:37.289Z,49.10
2023-05-24T12:30:37.321Z,49.06
2023-05-24T12:31:37.417Z,49.02
2023-05-24T12:32:37.435Z,49.10
2023-05-24T12:33:37.324Z,49.15
2023-05-24T12:34:37.336Z,49.21
2023-05-24T12:35:37.346Z,49.24
2023-05-24T12:36:37.841Z,49.29
2023-05-24T12:37:37.842Z,49.30
2023-05-24T12:38:37.503Z,49.39
2023-05-24T12:39:37.592Z,49.56
2023-05-24T12:40:37.624Z,49.54
2023-05-24T12:41:37.661Z,49.60
2023-05-24T12:42:37.724Z,49.80
2023-05-24T12:43:37.741Z,49.76
2023-05-24T12:44:37.799Z,49.78
2023-05-24T12:45:37.823Z,49.79
2023-05-24T12:46:37.859Z,49.84
2023-05-24T12:47:37.892Z,49.87
2023-05-24T12:48:37.900Z,49.93
2023-05-24T12:49:37.919Z,49.96
2023-05-24T12:50:37.969Z,50.00
2023-05-24T12:51:37.975Z,50.05
2023-05-24T12:52:37.987Z,50.19
2023-05-24T12:53:38.017Z,50.17
2023-05-24T12:54:38.032Z,50.18
2023-05-24T12:55:44.873Z,50.29
2023-05-24T12:56:38.138Z,49.77
2023-05-24T12:57:38.343Z,49.19
2023-05-24T12:58:38.054Z,47.45
2023-05-24T12:59:38.027Z,46.81